Strona główna
METAR-TAF:

METAR-TAF

Lotnisko :

Reims, Francja

Szerokość geograficzna: 49-12-31N, Długość geograficzna: 004-09-24E, wysokość: 95 m

Aktualna obserwacja pogody

Raport powstał 41 minut temu, godzina 19:30 UTC
Wiatr 6 kt od północno-północny wschód
Temperatura 4°C
Wilgotność 81%
Ciśnienie 1043 hPa
Widzialność 10 km lub więcej
Brak chmur poniżej 1500 m i brak chmur cumulonimbus

METAR: LFQA 191930Z AUTO 02006KT CAVOK 04/01 Q1043

czas: 21:11 (20:11 UTC)


TAF: brakujący

Obserwacja i prognoza pogody dla ponad 4000 lotnisk (raport METAR i TAF).

Dostępne stacje oznaczono żółtymi i czerwonymi punktami na mapie.

Najedź kursorem aby zobaczyć nazwę stacji.

Kliknij aby zobaczyć obserwacje i prognozy pogody.

Aby zmienić mapę: kliknij na zielony przycisk z czarnym krzyżykiem, aby powiększyć; na zielony przycisk z myślnikiem, aby pomniejszyć; na zielone strzałki, aby przejść do map sąsiednich.


METAR-TAF: